createdAt,value
2023-04-09T00:01:18.081Z,17.10
2023-04-09T00:04:22.426Z,18.65
2023-04-09T00:07:24.737Z,17.35
2023-04-09T00:10:27.191Z,16.05
2023-04-09T00:13:38.672Z,20.10
2023-04-09T00:16:41.929Z,19.67
2023-04-09T00:19:44.180Z,18.60
2023-04-09T00:22:46.651Z,16.95
2023-04-09T00:25:48.804Z,15.10
2023-04-09T00:28:51.709Z,18.27
2023-04-09T00:31:54.188Z,16.85
2023-04-09T00:34:56.714Z,15.30
2023-04-09T00:37:58.986Z,17.87
2023-04-09T00:41:01.772Z,19.87
2023-04-09T00:44:04.020Z,16.87
2023-04-09T00:47:06.682Z,16.35
2023-04-09T00:50:09.425Z,17.77
2023-04-09T00:53:12.992Z,17.95
2023-04-09T00:56:17.445Z,19.52
2023-04-09T00:59:20.191Z,17.50
2023-04-09T01:02:22.929Z,16.33
2023-04-09T01:05:34.363Z,15.57
2023-04-09T01:08:55.371Z,18.52
2023-04-09T01:12:16.207Z,20.30
2023-04-09T01:15:25.492Z,15.77
2023-04-09T01:18:30.947Z,19.23
2023-04-09T01:21:34.314Z,17.98
2023-04-09T01:24:52.671Z,19.55
2023-04-09T01:28:06.806Z,19.37
2023-04-09T01:31:14.019Z,18.77
2023-04-09T01:34:17.960Z,20.42
2023-04-09T01:37:22.749Z,16.75
2023-04-09T01:40:25.191Z,18.90
2023-04-09T01:43:28.058Z,18.65
2023-04-09T01:46:31.155Z,17.00
2023-04-09T01:49:36.299Z,17.15
2023-04-09T01:52:39.272Z,18.02
2023-04-09T01:55:41.848Z,16.80
2023-04-09T01:58:44.099Z,18.77
2023-04-09T02:01:47.988Z,17.30
2023-04-09T02:04:55.998Z,19.20
2023-04-09T02:08:02.718Z,16.00
2023-04-09T02:11:10.651Z,16.00
2023-04-09T02:14:13.523Z,20.48
2023-04-09T02:17:16.128Z,19.05
2023-04-09T02:20:19.789Z,18.52
2023-04-09T02:23:22.703Z,20.90
2023-04-09T02:26:25.128Z,18.95
2023-04-09T02:29:27.693Z,19.53
2023-04-09T02:32:30.155Z,19.98
2023-04-09T02:35:33.708Z,20.33
2023-04-09T02:38:35.976Z,18.75
2023-04-09T02:41:38.453Z,17.95
2023-04-09T02:44:40.657Z,19.67
2023-04-09T02:47:43.154Z,19.20
2023-04-09T02:50:45.641Z,21.05
2023-04-09T02:53:48.514Z,18.83
2023-04-09T02:56:50.762Z,18.10
2023-04-09T02:59:53.344Z,20.40
2023-04-09T03:02:55.872Z,19.37
2023-04-09T03:05:58.493Z,22.77
2023-04-09T03:09:01.099Z,17.02
2023-04-09T03:12:03.784Z,21.70
2023-04-09T03:15:06.906Z,19.08
2023-04-09T03:18:09.445Z,17.20
2023-04-09T03:21:14.305Z,17.33
2023-04-09T03:24:20.459Z,17.55
2023-04-09T03:30:27.388Z,17.23
2023-04-09T03:33:30.243Z,18.20
2023-04-09T03:36:33.154Z,19.07
2023-04-09T03:39:35.968Z,16.73
2023-04-09T03:42:38.430Z,21.15
2023-04-09T03:45:41.927Z,21.37
2023-04-09T03:48:45.945Z,19.30
2023-04-09T03:51:48.294Z,19.45
2023-04-09T03:54:51.259Z,17.55
2023-04-09T03:57:53.942Z,18.40
2023-04-09T04:00:57.256Z,20.05
2023-04-09T04:04:00.466Z,18.17
2023-04-09T04:07:04.013Z,15.40
2023-04-09T04:10:07.324Z,19.48
2023-04-09T04:13:09.908Z,19.20
2023-04-09T04:16:12.555Z,18.05
2023-04-09T04:19:15.556Z,20.62
2023-04-09T04:22:18.336Z,19.95
2023-04-09T04:25:21.224Z,20.17
2023-04-09T04:28:24.156Z,21.10
2023-04-09T04:31:26.713Z,23.77
2023-04-09T04:34:32.657Z,17.08
2023-04-09T04:37:35.526Z,18.45
2023-04-09T04:40:38.116Z,18.40
2023-04-09T04:43:43.076Z,20.07
2023-04-09T04:46:47.354Z,18.02
2023-04-09T04:49:49.622Z,20.50
2023-04-09T04:52:52.582Z,18.00
2023-04-09T04:55:55.376Z,18.85
2023-04-09T04:58:58.408Z,17.20
2023-04-09T05:02:02.667Z,20.73
2023-04-09T05:05:06.650Z,19.92
2023-04-09T05:08:09.254Z,17.20
2023-04-09T05:11:13.007Z,19.42
2023-04-09T05:14:16.543Z,19.37
2023-04-09T05:17:19.184Z,18.45
2023-04-09T05:20:21.609Z,20.92
2023-04-09T05:23:24.943Z,17.02
2023-04-09T05:26:27.307Z,17.40
2023-04-09T05:29:30.362Z,18.05
2023-04-09T05:32:34.490Z,14.98
2023-04-09T05:35:40.664Z,18.43
2023-04-09T05:38:43.872Z,17.42
2023-04-09T05:41:46.629Z,16.23
2023-04-09T05:44:51.352Z,16.08
2023-04-09T05:47:54.802Z,16.70
2023-04-09T05:50:59.100Z,16.50
2023-04-09T05:54:04.117Z,18.48
2023-04-09T05:57:07.127Z,18.23
2023-04-09T06:00:10.588Z,15.10
2023-04-09T06:03:18.951Z,15.27
2023-04-09T06:06:21.688Z,19.17
2023-04-09T06:09:23.844Z,15.65
2023-04-09T06:12:26.336Z,17.73
2023-04-09T06:15:28.603Z,17.10
2023-04-09T06:18:31.620Z,15.43
2023-04-09T06:21:33.852Z,16.70
2023-04-09T06:24:37.693Z,15.00
2023-04-09T06:27:40.267Z,16.33
2023-04-09T06:30:42.760Z,18.05
2023-04-09T06:33:44.969Z,17.50
2023-04-09T06:36:47.485Z,15.68
2023-04-09T06:40:00.497Z,15.07
2023-04-09T06:43:03.914Z,15.85
2023-04-09T06:46:07.325Z,16.25
2023-04-09T06:49:10.284Z,14.50
2023-04-09T06:52:12.489Z,17.12
2023-04-09T06:55:15.548Z,14.35
2023-04-09T06:58:17.827Z,16.00
2023-04-09T07:01:20.463Z,13.07
2023-04-09T07:04:22.848Z,14.43
2023-04-09T07:07:25.971Z,14.75
2023-04-09T07:10:28.135Z,13.83
2023-04-09T07:13:31.287Z,15.90
2023-04-09T07:16:33.608Z,14.60
2023-04-09T07:19:39.077Z,12.45
2023-04-09T07:22:41.693Z,13.85
2023-04-09T07:25:44.212Z,15.50
2023-04-09T07:28:46.361Z,11.27
2023-04-09T07:31:49.060Z,13.13
2023-04-09T07:34:52.770Z,13.40
2023-04-09T07:37:55.810Z,15.70
2023-04-09T07:40:58.423Z,14.87
2023-04-09T07:44:03.274Z,15.13
2023-04-09T07:47:07.705Z,16.37
2023-04-09T07:50:10.646Z,13.70
2023-04-09T07:53:12.925Z,15.48
2023-04-09T07:56:15.738Z,14.63
2023-04-09T07:59:18.255Z,15.73
2023-04-09T08:02:21.294Z,14.20
2023-04-09T08:05:23.831Z,12.23
2023-04-09T08:08:26.068Z,12.75
2023-04-09T08:11:28.715Z,13.35
2023-04-09T08:14:31.098Z,13.68
2023-04-09T08:17:33.636Z,13.85
2023-04-09T08:20:35.914Z,13.30
2023-04-09T08:23:38.431Z,15.13
2023-04-09T08:26:41.766Z,14.57
2023-04-09T08:32:47.157Z,13.75
2023-04-09T08:35:49.802Z,13.10
2023-04-09T08:38:53.196Z,15.73
2023-04-09T08:42:01.807Z,14.25
2023-04-09T08:45:05.423Z,21.83
2023-04-09T08:48:10.302Z,13.50
2023-04-09T08:51:16.749Z,13.57
2023-04-09T08:54:20.230Z,14.63
2023-04-09T08:57:22.490Z,14.55
2023-04-09T09:00:24.937Z,14.30
2023-04-09T09:03:27.499Z,16.25
2023-04-09T09:06:33.163Z,15.40
2023-04-09T09:09:50.943Z,14.55
2023-04-09T09:12:53.451Z,16.48
2023-04-09T09:16:12.836Z,13.25
2023-04-09T09:19:24.196Z,14.87
2023-04-09T09:22:26.517Z,16.37
2023-04-09T09:25:30.633Z,12.80
2023-04-09T09:28:36.431Z,15.23
2023-04-09T09:31:57.075Z,13.35
2023-04-09T09:35:02.987Z,14.63
2023-04-09T09:38:05.485Z,13.95
2023-04-09T09:41:17.895Z,12.02
2023-04-09T09:44:33.602Z,13.10
2023-04-09T09:47:37.522Z,12.57
2023-04-09T09:50:43.719Z,10.88
2023-04-09T09:53:49.582Z,14.80
2023-04-09T09:56:55.590Z,15.52
2023-04-09T10:00:02.856Z,13.95
2023-04-09T10:03:16.066Z,12.23
2023-04-09T10:06:19.110Z,12.98
2023-04-09T10:09:23.355Z,12.93
2023-04-09T10:12:27.194Z,13.15
2023-04-09T10:15:30.029Z,12.77
2023-04-09T10:18:35.995Z,15.23
2023-04-09T10:21:47.682Z,12.80
2023-04-09T10:24:51.415Z,15.55
2023-04-09T10:28:02.208Z,16.42
2023-04-09T10:31:06.733Z,13.60
2023-04-09T10:34:10.849Z,13.52
2023-04-09T10:37:21.710Z,16.83
2023-04-09T10:40:23.961Z,13.60
2023-04-09T10:43:30.147Z,16.75
2023-04-09T10:46:36.856Z,13.75
2023-04-09T10:49:42.358Z,13.43
2023-04-09T10:52:45.009Z,16.12
2023-04-09T10:55:52.691Z,13.80
2023-04-09T10:58:54.914Z,13.88
2023-04-09T11:01:57.433Z,13.52
2023-04-09T11:05:21.803Z,14.73
2023-04-09T11:08:29.144Z,16.40
2023-04-09T11:11:31.437Z,15.30
2023-04-09T11:14:34.194Z,13.57
2023-04-09T11:17:36.888Z,18.25
2023-04-09T11:20:40.867Z,14.68
2023-04-09T11:26:54.913Z,15.20
2023-04-09T11:29:57.329Z,16.90
2023-04-09T11:33:01.400Z,14.32
2023-04-09T11:36:06.099Z,15.60
2023-04-09T11:39:08.862Z,15.60
2023-04-09T11:42:14.847Z,17.30
2023-04-09T11:45:18.390Z,17.33
2023-04-09T11:48:23.310Z,15.48
2023-04-09T11:51:27.412Z,15.77
2023-04-09T11:54:36.180Z,16.70
2023-04-09T11:57:44.290Z,15.05
2023-04-09T12:00:46.576Z,16.37
2023-04-09T12:03:56.321Z,18.50
2023-04-09T12:06:58.921Z,16.73
2023-04-09T12:10:06.684Z,15.97
2023-04-09T12:13:13.676Z,17.90
2023-04-09T12:16:20.568Z,14.10
2023-04-09T12:19:25.734Z,16.02
2023-04-09T12:22:28.217Z,15.23
2023-04-09T12:25:36.818Z,17.02
2023-04-09T12:28:39.325Z,15.63
2023-04-09T12:31:42.329Z,14.80
2023-04-09T12:34:44.817Z,16.33
2023-04-09T12:37:47.307Z,15.90
2023-04-09T12:40:49.846Z,15.60
2023-04-09T12:43:52.371Z,15.73
2023-04-09T12:46:55.302Z,15.40
2023-04-09T12:49:57.531Z,14.00
2023-04-09T12:53:00.113Z,12.68
2023-04-09T12:56:02.771Z,14.60
2023-04-09T12:59:05.901Z,15.02
2023-04-09T13:02:08.513Z,11.57
2023-04-09T13:05:11.334Z,13.38
2023-04-09T13:08:13.648Z,13.52
2023-04-09T13:11:16.160Z,15.43
2023-04-09T13:14:18.527Z,14.85
2023-04-09T13:17:22.159Z,15.00
2023-04-09T13:23:26.846Z,12.15
2023-04-09T13:26:29.132Z,11.90
2023-04-09T13:29:31.984Z,10.83
2023-04-09T13:32:34.296Z,12.77
2023-04-09T13:35:37.095Z,10.75
2023-04-09T13:38:39.405Z,13.68
2023-04-09T13:41:42.071Z,12.80
2023-04-09T13:44:47.015Z,10.52
2023-04-09T13:47:51.258Z,10.82
2023-04-09T13:50:53.656Z,9.65
2023-04-09T13:53:56.585Z,10.47
2023-04-09T13:56:58.890Z,12.55
2023-04-09T14:00:04.408Z,11.53
2023-04-09T14:03:06.968Z,13.73
2023-04-09T14:06:09.885Z,11.07
2023-04-09T14:09:12.465Z,13.43
2023-04-09T14:12:14.920Z,13.27
2023-04-09T14:15:17.152Z,12.32
2023-04-09T14:18:19.680Z,13.90
2023-04-09T14:21:22.046Z,12.30
2023-04-09T14:24:24.772Z,13.60
2023-04-09T14:27:27.304Z,12.30
2023-04-09T14:30:29.946Z,11.07
2023-04-09T14:33:32.194Z,11.00
2023-04-09T14:36:34.723Z,12.73
2023-04-09T14:39:36.912Z,12.43
2023-04-09T14:42:41.129Z,13.45
2023-04-09T14:45:43.360Z,12.52
2023-04-09T14:48:46.491Z,13.57
2023-04-09T14:51:48.728Z,13.27
2023-04-09T14:54:51.226Z,12.50
2023-04-09T14:57:53.359Z,10.93
2023-04-09T15:00:56.650Z,13.15
2023-04-09T15:03:59.084Z,12.02
2023-04-09T15:07:01.582Z,13.83
2023-04-09T15:10:04.019Z,12.85
2023-04-09T15:13:06.629Z,12.13
2023-04-09T15:16:08.895Z,12.32
2023-04-09T15:19:11.409Z,13.32
2023-04-09T15:22:13.946Z,15.50
2023-04-09T15:25:17.370Z,12.50
2023-04-09T15:28:19.512Z,13.68
2023-04-09T15:31:22.006Z,12.52
2023-04-09T15:34:25.744Z,13.15
2023-04-09T15:37:28.243Z,14.70
2023-04-09T15:40:31.863Z,13.65
2023-04-09T15:43:34.349Z,12.27
2023-04-09T15:46:37.985Z,14.45
2023-04-09T15:49:40.618Z,12.52
2023-04-09T15:52:42.894Z,13.45
2023-04-09T15:55:45.400Z,13.82
2023-04-09T15:58:47.625Z,14.25
2023-04-09T16:01:50.538Z,12.50
2023-04-09T16:04:52.974Z,13.52
2023-04-09T16:07:56.451Z,14.32
2023-04-09T16:11:01.071Z,13.90
2023-04-09T16:14:03.807Z,13.95
2023-04-09T16:17:06.475Z,15.80
2023-04-09T16:20:09.045Z,14.85
2023-04-09T16:23:11.612Z,14.30
2023-04-09T16:26:14.624Z,13.40
2023-04-09T16:29:17.770Z,15.10
2023-04-09T16:32:19.939Z,13.48
2023-04-09T16:35:22.516Z,14.68
2023-04-09T16:38:27.444Z,15.50
2023-04-09T16:41:29.960Z,15.52
2023-04-09T16:44:32.134Z,15.00
2023-04-09T16:47:34.743Z,15.77
2023-04-09T16:50:37.313Z,13.73
2023-04-09T16:53:40.118Z,15.67
2023-04-09T16:56:42.525Z,13.38
2023-04-09T16:59:45.546Z,13.13
2023-04-09T17:02:47.857Z,18.03
2023-04-09T17:05:50.984Z,15.03
2023-04-09T17:08:53.401Z,15.18
2023-04-09T17:11:57.948Z,16.58
2023-04-09T17:15:01.148Z,16.08
2023-04-09T17:18:04.154Z,15.68
2023-04-09T17:21:07.052Z,15.53
2023-04-09T17:24:09.537Z,15.70
2023-04-09T17:27:11.755Z,15.27
2023-04-09T17:30:14.348Z,15.02
2023-04-09T17:33:16.547Z,18.12
2023-04-09T17:36:20.223Z,14.90
2023-04-09T17:39:26.609Z,14.07
2023-04-09T17:42:29.708Z,15.48
2023-04-09T17:45:31.997Z,15.17
2023-04-09T17:48:36.659Z,16.20
2023-04-09T17:51:39.298Z,16.08
2023-04-09T17:54:45.477Z,13.55
2023-04-09T17:57:48.046Z,14.63
2023-04-09T18:00:52.870Z,13.20
2023-04-09T18:03:55.777Z,14.30
2023-04-09T18:06:58.082Z,13.53
2023-04-09T18:10:02.116Z,16.33
2023-04-09T18:13:04.511Z,15.32
2023-04-09T18:16:11.282Z,14.10
2023-04-09T18:19:13.934Z,21.40
2023-04-09T18:22:16.625Z,15.27
2023-04-09T18:25:18.876Z,13.07
2023-04-09T18:28:21.756Z,15.23
2023-04-09T18:31:24.048Z,15.13
2023-04-09T18:34:26.745Z,15.90
2023-04-09T18:37:28.941Z,15.02
2023-04-09T18:40:31.486Z,14.57
2023-04-09T18:43:33.749Z,13.13
2023-04-09T18:46:36.233Z,15.02
2023-04-09T18:49:38.443Z,14.80
2023-04-09T18:52:40.970Z,12.43
2023-04-09T18:55:43.154Z,15.13
2023-04-09T18:58:47.090Z,15.25
2023-04-09T19:01:49.366Z,14.87
2023-04-09T19:04:52.657Z,11.93
2023-04-09T19:08:14.421Z,13.48
2023-04-09T19:11:17.534Z,16.67
2023-04-09T19:14:19.968Z,12.63
2023-04-09T19:17:23.012Z,13.97
2023-04-09T19:20:25.819Z,16.67
2023-04-09T19:23:28.669Z,16.70
2023-04-09T19:26:31.297Z,15.55
2023-04-09T19:29:33.899Z,15.75
2023-04-09T19:32:36.847Z,13.43
2023-04-09T19:35:41.010Z,14.98
2023-04-09T19:38:43.326Z,12.10
2023-04-09T19:41:46.028Z,15.07
2023-04-09T19:44:48.362Z,13.95
2023-04-09T19:47:50.816Z,14.73
2023-04-09T19:50:53.180Z,16.50
2023-04-09T19:53:56.462Z,17.20
2023-04-09T19:56:59.794Z,20.20
2023-04-09T20:03:13.206Z,18.48
2023-04-09T20:06:16.379Z,15.32
2023-04-09T20:09:18.857Z,14.93
2023-04-09T20:12:23.713Z,18.70
2023-04-09T20:15:26.595Z,17.52
2023-04-09T20:18:29.076Z,16.95
2023-04-09T20:21:31.300Z,17.23
2023-04-09T20:24:33.995Z,15.35
2023-04-09T20:27:37.482Z,15.57
2023-04-09T20:33:41.894Z,16.10
2023-04-09T20:36:44.505Z,15.27
2023-04-09T20:39:46.768Z,15.65
2023-04-09T20:42:49.391Z,19.83
2023-04-09T20:45:52.995Z,15.07
2023-04-09T20:48:55.813Z,20.90
2023-04-09T20:51:58.160Z,19.08
2023-04-09T20:55:00.855Z,17.92
2023-04-09T20:58:04.176Z,16.08
2023-04-09T21:01:09.512Z,19.95
2023-04-09T21:04:11.990Z,14.65
2023-04-09T21:07:14.646Z,18.70
2023-04-09T21:10:16.830Z,20.83
2023-04-09T21:13:19.289Z,18.95
2023-04-09T21:16:21.649Z,16.70
2023-04-09T21:19:24.189Z,19.92
2023-04-09T21:22:26.730Z,15.77
2023-04-09T21:25:29.417Z,19.07
2023-04-09T21:28:31.972Z,17.40
2023-04-09T21:31:35.562Z,19.47
2023-04-09T21:34:39.506Z,18.48
2023-04-09T21:37:42.010Z,18.08
2023-04-09T21:40:46.218Z,16.90
2023-04-09T21:43:49.063Z,17.37
2023-04-09T21:46:51.274Z,17.23
2023-04-09T21:49:54.103Z,19.45
2023-04-09T21:52:56.315Z,16.10
2023-04-09T21:55:58.737Z,19.15
2023-04-09T21:59:01.431Z,20.52
2023-04-09T22:02:07.531Z,19.58
2023-04-09T22:05:10.744Z,18.15
2023-04-09T22:08:13.523Z,19.87
2023-04-09T22:11:16.422Z,18.77
2023-04-09T22:14:19.827Z,18.25
2023-04-09T22:20:26.294Z,19.62
2023-04-09T22:23:28.821Z,17.70
2023-04-09T22:26:31.664Z,18.80
2023-04-09T22:29:34.201Z,19.83
2023-04-09T22:32:36.441Z,18.70
2023-04-09T22:35:39.022Z,21.10
2023-04-09T22:38:41.447Z,19.65
2023-04-09T22:41:43.960Z,18.27
2023-04-09T22:44:46.327Z,17.52
2023-04-09T22:47:48.946Z,18.98
2023-04-09T22:50:51.497Z,22.13
2023-04-09T22:53:53.983Z,17.92
2023-04-09T22:56:57.348Z,20.45
2023-04-09T23:03:01.989Z,20.85
2023-04-09T23:06:05.086Z,19.80
2023-04-09T23:09:07.285Z,18.83
2023-04-09T23:12:09.736Z,20.45
2023-04-09T23:15:12.167Z,19.12
2023-04-09T23:18:14.657Z,21.20
2023-04-09T23:21:16.845Z,23.35
2023-04-09T23:24:19.380Z,21.52
2023-04-09T23:27:28.095Z,18.75
2023-04-09T23:30:31.576Z,18.48
2023-04-09T23:33:34.469Z,21.70
2023-04-09T23:36:37.047Z,19.45
2023-04-09T23:39:39.239Z,23.23
2023-04-09T23:42:41.670Z,21.55
2023-04-09T23:45:44.320Z,20.90
2023-04-09T23:48:46.782Z,23.52
2023-04-09T23:51:51.149Z,22.87
2023-04-09T23:54:54.036Z,21.30
2023-04-09T23:57:56.519Z,22.23
